• Join FlightAware (Why Join?)
  • Login
  • US Flag 
10:30PM EDT


 

Airport Tracker/Info


-or-


 

Live Flight TrackerFlight Track Log ✈ DAL3720 ✈ 20-Nov-2013 ✈ KDTW - KCVG

Flight Track Log - Related Links

Times and Time Zones

All times are in EST time to prevent confusion due to time zone crossing. See the DAL3720 flight status page for this flight to view local times or setup timezone preferences in your user account.

Time Position Orientation Groundspeed Altitude Reporting Facility
EST Latitude Longitude Course Direction KTS MPH feet Rate Location/Type
07:41AM 42.2081 -83.3675 219° Southwest 152 175 1,300  Level Cleveland Center
07:42AM 42.1875 -83.3897 219° Southwest 183 211 2,600 2,100 Climbing Cleveland Center
07:42AM 42.1481 -83.4378 222° Southwest 236 272 4,600 1,740 Climbing Cleveland Center
07:43AM 42.1497 -83.4356 45° Northeast 204 235 4,500 2,940 Descending Cleveland Center
07:44AM 42.0886 -83.5056 220° Southwest 249 287 8,100 3,000 Climbing Cleveland Center
07:45AM 42.0217 -83.5653 214° Southwest 284 327 10,700 2,040 Climbing Cleveland Center
07:46AM 41.9344 -83.6231 206° Southwest 322 371 12,300 1,740 Climbing Cleveland Center
07:47AM 41.8456 -83.6825 206° Southwest 353 406 14,300 1,920 Climbing Cleveland Center
07:48AM 41.7542 -83.7414 206° Southwest 363 418 16,300 1,680 Climbing Cleveland Center
07:49AM 41.6633 -83.8033 207° Southwest 366 421 17,800 1,560 Climbing Cleveland Center
07:50AM 41.5772 -83.8739 212° Southwest 365 420 19,500 1,020 Climbing Cleveland Center
07:51AM 41.4856 -83.9458 210° Southwest 379 436 20,000 240 Climbing Cleveland Center
07:52AM 41.3883 -84.0208 210° Southwest 401 461 20,000  Level Cleveland Center
07:53AM 41.2797 -84.1072 211° Southwest 398 458 20,000  Level Cleveland Center
07:54AM 41.1886 -84.1828 212° Southwest 389 448 20,000  Level Cleveland Center
07:55AM 41.1233 -84.2400 213° Southwest 390 449 20,000  Level Indianapolis Center
07:56AM 41.0333 -84.3181 213° Southwest 389 448 20,000  Level Indianapolis Center
07:57AM 40.9439 -84.3939 213° Southwest 386 444 20,000  Level Indianapolis Center
07:58AM 40.8372 -84.4856 213° Southwest 383 441 20,000 -360 Level Indianapolis Center
07:59AM 40.7475 -84.5628 213° Southwest 385 443 19,300 -840 Descending Indianapolis Center
08:00AM 40.6581 -84.6392 213° Southwest 385 443 18,300 -840 Descending Indianapolis Center
08:01AM 40.5686 -84.7147 213° Southwest 385 443 17,700 -900 Descending Indianapolis Center
08:02AM 40.4803 -84.7886 212° Southwest 379 436 16,500 -1,320 Descending Indianapolis Center
08:03AM 40.4111 -84.8469 213° Southwest 357 411 15,500 -1,200 Descending Indianapolis Center
08:03AM 40.3983 -84.8586 215° Southwest 359 413 15,300 -1,140 Descending Indianapolis Center
08:03AM 40.3458 -84.9033 213° Southwest 359 413 14,600 -1,260 Descending Indianapolis Center
08:04AM 40.3047 -84.9386 213° Southwest 363 418 14,000 -1,200 Descending Indianapolis Center
08:04AM 40.2669 -84.9681 211° Southwest 365 420 13,500 -1,200 Descending Indianapolis Center
08:05AM 40.2106 -84.9656 178° South 368 423 12,800 -1,200 Descending Indianapolis Center
08:05AM 40.1492 -84.9483 168° South 351 404 12,100 -1,200 Descending Indianapolis Center
08:06AM 40.1136 -84.9394 169° South 358 412 11,600 -1,200 Descending Indianapolis Center
08:07AM 40.0508 -84.9214 168° South 358 412 10,900 -1,200 Descending Indianapolis Center
08:07AM 40.0164 -84.9128 169° South 356 410 10,400 -840 Descending Indianapolis Center
08:08AM 39.9589 -84.8958 167° South 343 395 10,100 -300 Descending Indianapolis Center
08:08AM 39.9167 -84.8847 169° South 348 400 10,100  Level Indianapolis Center
08:08AM 39.8731 -84.8742 169° South 338 389 10,100  Level Indianapolis Center
08:09AM 39.8250 -84.8594 167° South 342 394 10,100  Level Indianapolis Center
08:10AM 39.7144 -84.8747 186° South 349 402 10,100 -60 Level Indianapolis Center
08:11AM 39.6383 -84.9117 200° South 321 369 10,000 -840 Descending Indianapolis Center
08:12AM 39.5608 -84.9014 174° South 286 329 8,400 -1,680 Descending Indianapolis Center
08:13AM 39.5042 -84.8469 143° Southeast 264 304 6,600 -1,680 Descending Indianapolis Center
08:14AM 39.4636 -84.7675 123° Southeast 264 304 5,000 -1,200 Descending Indianapolis Center
08:15AM 39.4222 -84.6994 128° Southeast 250 288 4,200 -480 Descending Indianapolis Center
08:16AM 39.3528 -84.6719 163° South 220 253 4,100 -60 Descending Indianapolis Center
08:17AM 39.2886 -84.6675 177° South 231 266 4,100 -60 Level Indianapolis Center
08:18AM 39.2217 -84.6669 180° South 238 274 4,000 -300 Descending Indianapolis Center
08:19AM 39.1517 -84.6658 179° South 233 268 3,500 -960 Descending Indianapolis Center
08:21AM 39.1000 -84.6667 181° South 147 169 1,600 -1,200 Descending Cincinnati TRACON
08:23AM 39.0488 -84.6678 169° South  Level Estimated
08:30AM 39.0488 -84.6678 169° South  Level Estimated